Time;durP1;ratioP1;P1;durP2;ratioP2;P2;SDS_P1;SDS_P2;PMS_P1;PMS_P2;Temp;Humidity;BMP_temperature;BMP_pressure;BME280_temperature;BME280_humidity;BME280_pressure;Samples;Min_cycle;Max_cycle;Signal;HPM_P1;HPM_P2
2022/08/11 00:01:21;;;;;;;6.55;4.90;;;;;;;17.06;100.00;102504.94;5034965;28;20045;-79
2022/08/11 00:03:49;;;;;;;6.68;4.82;;;;;;;17.02;100.00;102506.91;5019827;28;20044;-78
2022/08/11 00:06:23;;;;;;;8.38;5.15;;;;;;;17.00;100.00;102505.19;5021244;28;20481;-78
2022/08/11 00:08:49;;;;;;;7.75;5.07;;;;;;;16.96;100.00;102501.81;5038413;28;20056;-78
2022/08/11 00:11:16;;;;;;;7.55;5.20;;;;;;;16.94;100.00;102496.50;5035615;28;20046;-79
2022/08/11 00:13:45;;;;;;;7.00;5.28;;;;;;;16.92;100.00;102492.16;5021608;28;20051;-78
2022/08/11 00:16:24;;;;;;;8.05;5.72;;;;;;;16.88;100.00;102490.59;5040092;28;20090;-79
2022/08/11 00:18:55;;;;;;;7.15;5.60;;;;;;;16.86;100.00;102496.00;5022995;28;20044;-79
2022/08/11 00:21:22;;;;;;;7.60;5.30;;;;;;;16.84;100.00;102493.38;5036952;28;20040;-78
2022/08/11 00:23:57;;;;;;;7.50;5.70;;;;;;;16.83;100.00;102493.44;5036801;28;20037;-79
2022/08/11 00:26:24;;;;;;;8.18;5.50;;;;;;;16.81;100.00;102485.53;5039411;28;20051;-79
2022/08/11 00:28:50;;;;;;;8.32;5.80;;;;;;;16.80;100.00;102482.91;5036102;28;20384;-79
2022/08/11 00:31:35;;;;;;;8.90;5.90;;;;;;;16.75;100.00;102480.44;5021595;28;20625;-77
2022/08/11 00:34:01;;;;;;;8.77;5.40;;;;;;;16.73;100.00;102486.81;5025400;28;20032;-78
2022/08/11 00:37:06;;;;;;;7.50;5.10;;;;;;;16.68;100.00;102482.53;5035586;28;20056;-77
2022/08/11 00:39:34;;;;;;;7.00;5.35;;;;;;;16.65;100.00;102480.00;5021359;28;20040;-78
2022/08/11 00:42:10;;;;;;;7.53;5.55;;;;;;;16.62;100.00;102488.16;5039096;28;20143;-78
2022/08/11 00:44:44;;;;;;;7.05;5.20;;;;;;;16.60;100.00;102487.34;5041161;28;20035;-78
2022/08/11 00:47:32;;;;;;;7.75;5.28;;;;;;;16.55;100.00;102495.59;5039517;28;20500;-77
2022/08/11 00:50:03;;;;;;;7.97;5.30;;;;;;;16.53;100.00;102491.25;5036624;28;20094;-78
2022/08/11 00:52:47;;;;;;;7.60;5.53;;;;;;;16.52;100.00;102495.72;5039111;28;20028;-78
2022/08/11 00:55:36;;;;;;;7.88;5.43;;;;;;;16.52;100.00;102492.19;5024210;28;20025;-78
2022/08/11 00:58:04;;;;;;;7.07;5.03;;;;;;;16.49;100.00;102497.66;5056039;28;20057;-77
2022/08/11 01:01:13;;;;;;;7.60;5.07;;;;;;;16.47;100.00;102495.06;5018051;28;20041;-78
2022/08/11 01:04:26;;;;;;;7.82;5.30;;;;;;;16.45;100.00;102493.41;5003906;28;20053;-79
2022/08/11 01:07:01;;;;;;;;;;;;;;;16.42;100.00;102492.59;5020394;28;20679;-79
2022/08/11 01:09:30;;;;;;;7.22;4.80;;;;;;;16.37;100.00;102489.25;4997667;28;21816;-79
2022/08/11 01:12:17;;;;;;;9.35;5.68;;;;;;;16.34;100.00;102494.72;4984513;28;20038;-80
2022/08/11 01:14:52;;;;;;;8.32;5.50;;;;;;;16.31;100.00;102489.53;5014626;28;20514;-79
2022/08/11 01:17:55;;;;;;;9.23;5.43;;;;;;;16.28;100.00;102497.66;5020151;28;20030;-79
2022/08/11 01:20:45;;;;;;;7.53;5.63;;;;;;;16.25;100.00;102489.78;5016860;28;20041;-79
2022/08/11 01:23:58;;;;;;;8.80;5.22;;;;;;;16.23;100.00;102489.00;5015709;28;20071;-79
2022/08/11 01:27:11;;;;;;;7.35;5.25;;;;;;;16.22;100.00;102489.91;5006053;28;20049;-79
2022/08/11 01:29:55;;;;;;;7.38;5.28;;;;;;;16.20;100.00;102491.78;5019095;28;20064;-79
2022/08/11 01:32:32;;;;;;;8.07;5.65;;;;;;;16.18;100.00;102491.84;5017118;28;20037;-79
2022/08/11 01:35:38;;;;;;;7.90;5.28;;;;;;;16.18;100.00;102488.31;4999839;28;20028;-79
2022/08/11 01:38:20;;;;;;;7.10;5.07;;;;;;;16.17;100.00;102487.44;5018142;28;20029;-78
2022/08/11 01:41:14;;;;;;;8.10;5.30;;;;;;;16.15;100.00;102479.50;4999052;28;20439;-79
2022/08/11 01:46:47;;;;;;;8.00;5.32;;;;;;;16.12;100.00;102481.44;5017969;28;20040;-78
2022/08/11 01:49:29;;;;;;;8.70;5.43;;;;;;;16.13;100.00;102478.69;4977136;28;20021;-79
2022/08/11 01:52:08;;;;;;;8.75;5.80;;;;;;;16.10;100.00;102473.50;5015232;28;20546;-78
2022/08/11 01:54:44;;;;;;;9.07;5.78;;;;;;;16.10;100.00;102477.97;4998595;28;20087;-79
2022/08/11 01:57:51;;;;;;;8.48;5.60;;;;;;;16.09;100.00;102477.09;5016238;28;20803;-78
2022/08/11 02:00:27;;;;;;;9.60;6.40;;;;;;;16.06;100.00;102474.56;4986419;28;20649;-77
2022/08/11 02:03:06;;;;;;;9.27;6.15;;;;;;;16.04;100.00;102483.56;5031459;28;22090;-78
2022/08/11 02:06:53;;;;;;;8.95;5.82;;;;;;;16.00;100.00;102483.72;5014489;28;20033;-78
2022/08/11 02:09:33;;;;;;;10.00;6.60;;;;;;;15.96;100.00;102481.22;5023474;28;20033;-78
2022/08/11 02:12:13;;;;;;;10.18;6.00;;;;;;;15.94;100.00;102475.06;4970834;28;20179;-79
2022/08/11 02:14:45;;;;;;;9.88;6.53;;;;;;;15.93;100.00;102481.34;5027678;28;20112;-78
2022/08/11 02:17:46;;;;;;;8.57;6.28;;;;;;;15.91;100.00;102478.69;5037714;28;20086;-78
2022/08/11 02:23:38;;;;;;;9.38;6.47;;;;;;;15.87;100.00;102472.63;5037305;28;20037;-79
2022/08/11 02:26:08;;;;;;;8.68;5.80;;;;;;;15.86;100.00;102465.53;5031669;28;20028;-79
2022/08/11 02:28:41;;;;;;;8.30;6.40;;;;;;;15.85;100.00;102463.81;5035448;28;20063;-80
2022/08/11 02:34:23;;;;;;;10.73;6.55;;;;;;;15.79;100.00;102466.75;5038189;28;20025;-79
2022/08/11 02:37:15;;;;;;;;;;;;;;;15.77;100.00;102468.63;4999262;28;20041;-78
2022/08/11 02:39:56;;;;;;;11.57;6.93;;;;;;;15.73;100.00;102467.88;5017936;28;20003;-79
2022/08/11 02:42:27;;;;;;;10.95;6.60;;;;;;;15.71;100.00;102466.19;5035141;28;20037;-79
2022/08/11 02:45:05;;;;;;;10.10;6.88;;;;;;;15.69;100.00;102462.72;5035921;28;20209;-78
2022/08/11 02:51:19;;;;;;;10.07;7.07;;;;;;;15.69;100.00;102460.91;5036734;28;20037;-79
2022/08/11 02:54:05;;;;;;;10.13;6.93;;;;;;;15.67;100.00;102461.91;5037077;28;20044;-78
2022/08/11 02:56:43;;;;;;;12.00;6.90;;;;;;;15.66;100.00;102457.50;5038548;28;21496;-78
2022/08/11 03:02:18;;;;;;;10.85;7.05;;;;;;;15.65;100.00;102458.44;5027634;28;20060;-78
2022/08/11 03:04:56;;;;;;;11.40;6.80;;;;;;;15.66;100.00;102457.50;5010875;28;20033;-79
2022/08/11 03:07:30;;;;;;;12.10;7.28;;;;;;;15.66;100.00;102452.16;5033565;28;20037;-79
2022/08/11 03:10:21;;;;;;;11.23;6.97;;;;;;;15.64;100.00;102452.25;5020709;28;20124;-79
2022/08/11 03:19:15;;;;;;;9.60;6.45;;;;;;;15.65;100.00;102451.31;5024492;28;21746;-79
2022/08/11 03:21:47;;;;;;;11.30;7.18;;;;;;;15.66;100.00;102444.16;5030168;28;20084;-79
2022/08/11 03:24:18;;;;;;;10.05;6.93;;;;;;;15.65;100.00;102440.63;5011840;28;20123;-79
2022/08/11 03:26:57;;;;;;;14.52;7.55;;;;;;;15.65;100.00;102442.41;5019859;28;20052;-80
2022/08/11 03:29:33;;;;;;;11.60;7.20;;;;;;;15.64;100.00;102444.25;5027143;28;20029;-79
2022/08/11 03:32:23;;;;;;;11.95;7.45;;;;;;;15.62;100.00;102446.09;5008572;28;20038;-79
2022/08/11 03:34:49;;;;;;;11.38;6.70;;;;;;;15.60;100.00;102448.81;5025188;28;20025;-79
2022/08/11 03:43:16;;;;;;;11.45;7.25;;;;;;;15.60;100.00;102448.81;5054158;28;20041;-79
2022/08/11 03:46:06;;;;;;;14.23;7.75;;;;;;;15.58;100.00;102437.34;5016361;28;20041;-79
2022/08/11 03:48:44;;;;;;;12.00;7.50;;;;;;;15.55;100.00;102437.47;5014615;28;20120;-80
2022/08/11 03:51:26;;;;;;;12.70;7.68;;;;;;;15.53;100.00;102442.00;5019783;28;20076;-78
2022/08/11 03:53:55;;;;;;;11.37;7.93;;;;;;;15.55;100.00;102439.25;5035381;28;20033;-79
2022/08/11 03:56:39;;;;;;;11.20;7.43;;;;;;;15.54;100.00;102449.09;5022227;28;20331;-80
2022/08/11 03:59:19;;;;;;;11.38;7.97;;;;;;;15.51;100.00;102445.69;5008971;28;20180;-79
2022/08/11 04:02:22;;;;;;;11.88;7.93;;;;;;;15.50;100.00;102444.78;5014409;28;20044;-80
2022/08/11 04:05:19;;;;;;;14.07;8.38;;;;;;;15.47;100.00;102440.44;5014597;28;20437;-79
2022/08/11 04:08:15;;;;;;;14.50;8.10;;;;;;;15.47;100.00;102439.56;5016166;28;20045;-78
2022/08/11 04:11:10;;;;;;;10.73;7.65;;;;;;;15.47;100.00;102450.25;5016410;28;20049;-79
2022/08/11 04:13:55;;;;;;;12.00;7.18;;;;;;;15.45;100.00;102446.78;5014273;28;20045;-79
2022/08/11 04:16:46;;;;;;;11.40;7.35;;;;;;;15.44;100.00;102442.38;5017704;28;20117;-79
2022/08/11 04:19:18;;;;;;;11.30;7.10;;;;;;;15.42;100.00;102442.44;5009970;28;20100;-79
2022/08/11 04:21:55;;;;;;;11.20;7.45;;;;;;;15.40;100.00;102441.63;5012722;28;20064;-79
2022/08/11 04:24:42;;;;;;;13.05;7.72;;;;;;;15.39;100.00;102436.34;5010850;28;20029;-73
2022/08/11 04:27:25;;;;;;;12.75;7.70;;;;;;;15.38;100.00;102438.16;5016836;28;20041;-72
2022/08/11 04:30:06;;;;;;;12.45;7.93;;;;;;;15.39;100.00;102433.69;4995003;28;20048;-73
2022/08/11 04:32:50;;;;;;;11.52;7.63;;;;;;;15.38;100.00;102438.16;5016646;28;20128;-73
2022/08/11 04:35:42;;;;;;;12.85;7.65;;;;;;;15.38;100.00;102438.16;5016615;28;20034;-73
2022/08/11 04:38:45;;;;;;;13.55;7.68;;;;;;;15.39;100.00;102434.56;5017921;28;20052;-73
2022/08/11 04:41:31;;;;;;;11.60;7.78;;;;;;;15.42;100.00;102436.25;5016530;28;20077;-73
2022/08/11 04:44:28;;;;;;;13.48;8.05;;;;;;;15.45;100.00;102438.78;5012308;28;20481;-73
2022/08/11 05:02:19;;;;;;;13.18;8.18;;;;;;;15.57;100.00;102426.72;5033140;28;20049;-72
2022/08/11 05:07:44;;;;;;;13.30;8.90;;;;;;;15.57;100.00;102424.94;5031811;28;20069;-72
2022/08/11 05:10:28;;;;;;;13.73;8.20;;;;;;;15.60;100.00;102432.78;5033874;28;20029;-73
2022/08/11 05:27:09;;;;;;;14.70;8.82;;;;;;;15.63;100.00;102431.81;5034715;28;20045;-73
2022/08/11 05:35:49;;;;;;;13.98;8.35;;;;;;;16.10;100.00;102435.22;5032614;28;20471;-73
2022/08/11 05:57:47;;;;;;;12.27;8.15;;;;;;;16.73;100.00;102436.88;5030737;28;20534;-73
2022/08/11 06:00:13;;;;;;;16.05;9.07;;;;;;;16.88;100.00;102443.28;5012736;28;20041;-73
2022/08/11 06:02:43;;;;;;;13.30;8.73;;;;;;;17.13;100.00;102442.19;5017545;28;20047;-73
2022/08/11 06:05:10;;;;;;;14.90;8.68;;;;;;;17.37;100.00;102450.81;5003160;28;20053;-71
2022/08/11 06:07:35;;;;;;;12.88;8.57;;;;;;;17.61;100.00;102442.50;5016767;28;20038;-73
2022/08/11 06:10:02;;;;;;;12.57;8.35;;;;;;;17.86;100.00;102451.13;5015821;28;20040;-74
2022/08/11 06:12:35;;;;;;;14.40;8.25;;;;;;;18.04;100.00;102442.13;5018972;28;20049;-73
2022/08/11 06:15:06;;;;;;;12.13;7.85;;;;;;;18.24;100.00;102444.75;5017438;28;20028;-73
2022/08/11 06:17:35;;;;;;;10.05;6.93;;;;;;;18.43;100.00;102447.31;5013443;28;20036;-72
2022/08/11 06:20:05;;;;;;;10.95;7.30;;;;;;;18.59;100.00;102447.34;5001888;28;20169;-85
2022/08/11 06:22:32;;;;;;;10.45;7.25;;;;;;;18.76;100.00;102443.75;5001817;28;20072;-84
2022/08/11 06:25:00;;;;;;;9.10;6.93;;;;;;;18.90;100.00;102448.34;5020446;28;20377;-84
2022/08/11 06:27:29;;;;;;;11.05;6.85;;;;;;;19.05;100.00;102441.28;5023887;28;20025;-83
2022/08/11 06:29:55;;;;;;;12.90;7.93;;;;;;;19.24;100.00;102451.00;5021749;28;20134;-81
2022/08/11 06:32:41;;;;;;;10.13;6.82;;;;;;;19.45;100.00;102442.66;5019083;28;20127;-80
2022/08/11 06:35:13;;;;;;;9.38;6.65;;;;;;;19.63;100.00;102436.22;5021856;28;20044;-80
2022/08/11 06:37:45;;;;;;;10.53;5.90;;;;;;;19.75;100.00;102441.78;5020632;28;20120;-80
2022/08/11 06:40:23;;;;;;;11.65;6.10;;;;;;;19.83;100.00;102439.50;5020327;28;20043;-80
2022/08/11 06:43:09;;;;;;;9.60;5.80;;;;;;;19.96;100.00;102428.94;5024380;28;20045;-82
2022/08/11 06:45:50;;;;;;;7.47;5.57;;;;;;;20.15;100.00;102428.66;5006361;28;20080;-81
2022/08/11 06:48:17;;;;;;;8.30;5.38;;;;;;;20.30;100.00;102436.72;4987231;28;20494;-81
2022/08/11 06:53:33;;;;;;;6.70;4.93;;;;;;;20.62;100.00;102425.78;5003255;28;20064;-82
2022/08/11 07:01:32;;;;;;;8.07;4.97;;;;;;;21.27;100.00;102429.72;4999114;28;20820;-82
2022/08/11 07:04:05;;;;;;;6.97;4.63;;;;;;;21.41;100.00;102428.78;5016445;28;20037;-82
2022/08/11 07:06:31;;;;;;;6.70;4.97;;;;;;;21.49;100.00;102430.97;5018311;28;20069;-82
2022/08/11 07:28:53;;;;;;;6.45;4.40;;;;;;;22.10;100.00;102432.28;4998618;28;20484;-82
2022/08/11 07:28:55;;;;;;;3.97;3.50;;;;;;;22.62;97.60;102419.66;5010380;28;20061;-81
2022/08/11 07:31:42;;;;;;;5.45;3.92;;;;;;;22.76;93.77;102418.66;5018164;28;20417;-82
2022/08/11 07:34:21;;;;;;;5.47;3.50;;;;;;;22.90;95.36;102414.97;4999943;28;20029;-89
2022/08/11 07:36:53;;;;;;;4.35;3.67;;;;;;;22.97;94.73;102425.28;4985945;28;20055;-82
2022/08/11 07:39:25;;;;;;;5.22;3.50;;;;;;;23.00;94.53;102420.53;5001155;28;20461;-80
2022/08/11 07:41:53;;;;;;;4.15;3.42;;;;;;;23.02;94.69;102428.50;5019741;28;20034;-83
2022/08/11 07:44:19;;;;;;;4.90;3.30;;;;;;;23.05;94.35;102422.91;5018075;28;20037;-83
2022/08/11 07:52:29;;;;;;;4.32;3.45;;;;;;;23.35;94.19;102416.19;5001857;28;20121;-77
2022/08/11 07:55:07;;;;;;;6.13;3.15;;;;;;;23.50;91.52;102421.41;4999163;28;20080;-77
2022/08/11 08:19:35;;;;;;;3.88;2.72;;;;;;;24.85;85.96;102419.03;5017251;28;20038;-78
2022/08/11 08:22:01;;;;;;;3.67;2.53;;;;;;;25.02;85.25;102409.50;5017894;28;20454;-78
2022/08/11 08:24:28;;;;;;;2.78;2.38;;;;;;;25.17;84.43;102422.75;5021227;28;20094;-78
2022/08/11 08:27:00;;;;;;;4.32;2.33;;;;;;;25.36;83.85;102422.94;5023120;28;20147;-78
2022/08/11 08:32:15;;;;;;;2.63;2.42;;;;;;;25.81;82.29;102422.84;5009285;28;20124;-78
2022/08/11 08:34:41;;;;;;;2.55;2.30;;;;;;;25.88;81.46;102415.91;5003162;28;20491;-78
2022/08/11 08:37:07;;;;;;;2.67;2.40;;;;;;;25.99;81.04;102412.25;5020359;28;20049;-77
2022/08/11 08:39:36;;;;;;;2.20;2.00;;;;;;;26.17;79.82;102413.34;5021828;28;20110;-78
2022/08/11 08:42:06;;;;;;;2.72;2.13;;;;;;;26.30;77.24;102409.56;5020121;28;20044;-78
2022/08/11 08:44:34;;;;;;;3.05;2.08;;;;;;;26.36;76.77;102409.03;5020122;28;20542;-78
2022/08/11 08:47:00;;;;;;;1.98;1.63;;;;;;;26.38;76.14;102408.91;5003668;28;20040;-78
2022/08/11 08:49:31;;;;;;;2.40;1.73;;;;;;;26.53;74.97;102409.38;5021084;28;20044;-78
2022/08/11 08:52:01;;;;;;;2.97;2.00;;;;;;;26.73;74.88;102415.72;5016371;28;20036;-78
2022/08/11 08:54:32;;;;;;;2.08;1.67;;;;;;;26.87;74.17;102413.59;4989045;28;20037;-78
2022/08/11 08:57:03;;;;;;;1.60;1.50;;;;;;;26.96;73.33;102416.38;4999896;28;20107;-78
2022/08/11 08:59:30;;;;;;;2.67;1.65;;;;;;;27.02;72.24;102416.81;4973502;28;20049;-77
2022/08/11 09:02:01;;;;;;;1.63;1.52;;;;;;;27.17;71.43;102412.66;5020142;28;20388;-78
2022/08/11 09:04:28;;;;;;;1.60;1.50;;;;;;;27.36;71.14;102411.84;5019467;28;20067;-78
2022/08/11 09:06:55;;;;;;;1.77;1.67;;;;;;;27.44;70.68;102412.97;5018997;28;20502;-78
2022/08/11 09:09:21;;;;;;;2.22;1.70;;;;;;;27.50;70.42;102417.81;5006503;28;20038;-78
2022/08/11 09:11:50;;;;;;;1.80;1.70;;;;;;;27.58;69.85;102414.41;5039246;28;20988;-78
2022/08/11 09:14:59;;;;;;;2.13;1.40;;;;;;;27.70;66.80;102417.81;5012101;28;20043;-78
2022/08/11 09:17:20;;;;;;;2.72;1.45;;;;;;;27.87;68.02;102414.34;5005100;28;20115;-78
2022/08/11 09:19:47;;;;;;;1.45;1.33;;;;;;;27.90;69.07;102414.06;5019471;28;20029;-77
2022/08/11 09:27:42;;;;;;;1.85;1.63;;;;;;;28.21;68.16;102407.53;5020876;28;20598;-77
2022/08/11 09:30:10;;;;;;;2.13;1.50;;;;;;;28.22;67.54;102406.56;5020793;28;20518;-79
2022/08/11 09:32:37;;;;;;;1.58;1.48;;;;;;;28.29;67.61;102404.06;5018697;28;20036;-78
2022/08/11 09:35:03;;;;;;;1.42;1.33;;;;;;;28.36;67.15;102410.63;5022445;28;21681;-78
2022/08/11 09:40:30;;;;;;;1.27;1.08;;;;;;;28.60;65.85;102410.06;5015485;28;20076;-79
2022/08/11 09:45:45;;;;;;;1.75;1.40;;;;;;;28.63;63.32;102419.81;5005438;28;20052;-78
2022/08/11 09:48:11;;;;;;;1.88;1.50;;;;;;;28.64;63.36;102402.47;5020000;28;20044;-77
2022/08/11 09:50:39;;;;;;;1.88;1.27;;;;;;;28.63;62.80;102410.81;5019037;28;21981;-77
2022/08/11 09:53:05;;;;;;;1.40;1.30;;;;;;;28.70;62.04;102403.72;5016935;28;20465;-77
2022/08/11 09:55:32;;;;;;;2.72;1.55;;;;;;;28.72;60.35;102407.16;5010849;28;20041;-77
2022/08/11 09:58:12;;;;;;;1.83;1.58;;;;;;;28.68;59.48;102406.59;5019694;28;20044;-77
2022/08/11 10:00:42;;;;;;;2.28;1.60;;;;;;;28.63;58.84;102403.47;5005635;28;20563;-77
2022/08/11 10:03:14;;;;;;;1.30;1.20;;;;;;;28.58;57.09;102406.66;5002436;28;20040;-77
2022/08/11 10:08:29;;;;;;;1.95;1.40;;;;;;;28.62;56.67;102399.03;5023203;28;20033;-77
2022/08/11 10:10:56;;;;;;;2.20;1.40;;;;;;;28.63;56.52;102402.63;5002592;28;20037;-78
2022/08/11 10:13:28;;;;;;;1.27;1.17;;;;;;;28.67;55.05;102390.41;5003861;28;20025;-78
2022/08/11 10:15:56;;;;;;;1.40;1.30;;;;;;;28.64;54.46;102388.84;5006239;28;20039;-78
2022/08/11 10:18:41;;;;;;;2.88;1.27;;;;;;;28.51;52.46;102400.09;5028075;28;20021;-78
2022/08/11 10:21:17;;;;;;;2.28;1.60;;;;;;;28.37;53.44;102387.00;5021858;28;20039;-78
2022/08/11 10:26:53;;;;;;;1.40;1.30;;;;;;;28.23;54.55;102388.34;5010817;28;20109;-78
2022/08/11 10:34:50;;;;;;;1.77;1.45;;;;;;;28.32;53.41;102380.13;5022483;28;20025;-78
2022/08/11 10:37:16;;;;;;;1.75;1.15;;;;;;;28.33;53.21;102375.56;5000091;28;20420;-78
2022/08/11 10:39:43;;;;;;;2.58;1.20;;;;;;;28.29;52.96;102380.44;4988224;28;20299;-79
2022/08/11 10:44:57;;;;;;;1.42;1.05;;;;;;;28.21;51.98;102374.88;5009035;28;20106;-78
2022/08/11 10:47:36;;;;;;;1.58;1.30;;;;;;;28.11;52.26;102382.22;5021603;28;20060;-78
2022/08/11 11:01:15;;;;;;;1.70;1.23;;;;;;;28.02;51.31;102357.59;5041571;28;20036;-77
2022/08/11 11:03:41;;;;;;;1.50;1.40;;;;;;;27.88;51.67;102358.09;5043012;28;20558;-77
2022/08/11 11:06:32;;;;;;;2.15;1.60;;;;;;;27.83;50.51;102363.97;5027148;28;20464;-76
2022/08/11 11:09:06;;;;;;;1.80;1.40;;;;;;;27.84;51.47;102356.66;5041612;28;20033;-77
2022/08/11 11:19:40;;;;;;;1.30;1.10;;;;;;;27.90;50.79;102345.19;5035968;28;20907;-78
2022/08/11 11:24:50;;;;;;;2.03;1.33;;;;;;;27.91;50.31;102347.78;5035227;28;20024;-76
2022/08/11 11:27:32;;;;;;;1.60;1.20;;;;;;;27.91;48.79;102344.19;5042826;28;20475;-77
2022/08/11 11:30:07;;;;;;;1.50;1.40;;;;;;;27.91;49.84;102344.19;5035641;28;20518;-78
2022/08/11 11:32:38;;;;;;;1.42;1.33;;;;;;;27.93;50.05;102345.75;5027932;28;20393;-77
2022/08/11 11:35:12;;;;;;;1.60;1.35;;;;;;;27.92;48.61;102345.88;5035373;28;20049;-77
2022/08/11 11:37:38;;;;;;;1.80;1.50;;;;;;;27.96;49.73;102351.88;5041711;28;20131;-77
2022/08/11 11:40:23;;;;;;;1.73;1.42;;;;;;;27.98;48.42;102338.97;5048443;28;20080;-77
2022/08/11 11:42:51;;;;;;;2.22;1.17;;;;;;;28.02;49.11;102335.84;5041188;28;20082;-79
2022/08/11 11:45:19;;;;;;;2.03;1.08;;;;;;;28.03;48.60;102340.28;5039446;28;20064;-80
2022/08/11 11:47:48;;;;;;;2.00;1.27;;;;;;;28.10;49.00;102339.66;5037792;28;20025;-80
2022/08/11 11:50:14;;;;;;;1.42;1.30;;;;;;;28.17;48.45;102338.06;5018872;28;20041;-79
2022/08/11 11:52:39;;;;;;;1.48;1.38;;;;;;;28.17;48.47;102338.06;5035132;28;20036;-79
2022/08/11 11:55:06;;;;;;;1.15;1.13;;;;;;;28.09;48.00;102327.91;5031822;28;20531;-79
2022/08/11 12:03:05;;;;;;;1.75;1.20;;;;;;;28.00;47.71;102326.94;5021421;28;20117;-78
2022/08/11 12:05:33;;;;;;;2.35;1.23;;;;;;;28.00;47.46;102324.22;5040663;28;20032;-78
2022/08/11 12:08:15;;;;;;;1.52;1.27;;;;;;;28.00;47.91;102326.09;5033609;28;20036;-79
2022/08/11 12:13:49;;;;;;;1.35;1.20;;;;;;;28.05;47.62;102326.53;5032386;28;20033;-79
2022/08/11 12:16:15;;;;;;;2.67;1.23;;;;;;;28.08;47.24;102314.44;5036574;28;20497;-79
2022/08/11 12:18:42;;;;;;;2.22;1.25;;;;;;;28.11;47.01;102315.00;5000316;28;20036;-79
2022/08/11 12:21:09;;;;;;;1.75;1.60;;;;;;;28.09;47.09;102308.03;5017651;28;20514;-80
2022/08/11 12:29:09;;;;;;;1.30;1.20;;;;;;;28.00;46.59;102310.63;5039474;28;20047;-79
2022/08/11 12:31:36;;;;;;;1.58;1.30;;;;;;;28.02;46.61;102302.31;5034711;28;20034;-82
2022/08/11 12:34:04;;;;;;;2.38;1.10;;;;;;;28.04;46.56;102295.72;5037787;28;20035;-81
2022/08/11 12:36:36;;;;;;;1.20;1.10;;;;;;;28.03;46.01;102296.72;5038589;28;20103;-81
2022/08/11 12:39:05;;;;;;;1.75;1.20;;;;;;;28.06;46.70;102303.75;5036750;28;20028;-81
2022/08/11 12:47:01;;;;;;;1.58;1.15;;;;;;;28.04;47.08;102290.28;5037965;28;20036;-81
2022/08/11 12:52:20;;;;;;;1.30;1.15;;;;;;;27.97;46.16;102277.41;5036171;28;20458;-80
2022/08/11 12:54:57;;;;;;;1.50;1.08;;;;;;;27.94;45.38;102273.13;5028372;28;20420;-81
2022/08/11 13:05:59;;;;;;;1.52;1.42;;;;;;;28.01;46.20;102268.81;5036846;28;20555;-79
2022/08/11 13:08:26;;;;;;;0.98;0.98;;;;;;;28.00;45.74;102264.34;5034653;28;20397;-80
2022/08/11 13:13:39;;;;;;;1.40;1.10;;;;;;;27.92;45.49;102266.97;5038960;28;20324;-80
2022/08/11 13:16:07;;;;;;;1.40;1.10;;;;;;;27.88;45.17;102269.16;5004201;28;20037;-79
2022/08/11 13:18:33;;;;;;;1.98;0.90;;;;;;;27.89;45.27;102261.84;5039962;28;20438;-79
2022/08/11 13:20:59;;;;;;;1.42;0.95;;;;;;;27.91;45.47;102262.56;5032253;28;20029;-79
2022/08/11 13:23:25;;;;;;;1.20;1.10;;;;;;;27.96;45.27;102260.25;5018652;28;20036;-79
2022/08/11 13:25:51;;;;;;;1.40;1.25;;;;;;;27.98;44.66;102260.06;5033480;28;20036;-79
2022/08/11 13:28:18;;;;;;;0.90;0.90;;;;;;;27.99;44.77;102265.38;5030853;28;20041;-77
2022/08/11 13:31:17;;;;;;;1.02;1.00;;;;;;;27.97;44.23;102261.09;5029021;28;20075;-78
2022/08/11 13:33:46;;;;;;;1.92;1.08;;;;;;;27.93;43.57;102261.41;5016388;28;20203;-79
2022/08/11 13:36:14;;;;;;;1.85;1.00;;;;;;;27.93;43.90;102260.53;5029325;28;20109;-78
2022/08/11 13:38:42;;;;;;;1.40;1.30;;;;;;;27.99;43.71;102259.09;5039534;28;20052;-78
2022/08/11 13:41:37;;;;;;;2.65;1.10;;;;;;;28.01;44.01;102249.78;4992300;28;20397;-78
2022/08/11 13:43:55;;;;;;;1.15;1.05;;;;;;;28.10;43.62;102261.59;5035650;28;20821;-79
2022/08/11 13:46:23;;;;;;;0.85;0.85;;;;;;;28.10;43.26;102258.88;5029309;28;20024;-78
2022/08/11 13:48:50;;;;;;;1.20;0.98;;;;;;;28.11;43.35;102251.56;5024004;28;20066;-78
2022/08/11 13:51:34;;;;;;;1.02;1.00;;;;;;;28.17;43.19;102253.69;5040935;28;20115;-78
2022/08/11 13:54:10;;;;;;;0.90;0.90;;;;;;;28.23;43.55;102249.50;5023526;28;20084;-77
2022/08/11 13:56:40;;;;;;;1.17;1.08;;;;;;;28.17;42.81;102257.25;5036232;28;20025;-78
2022/08/11 13:59:07;;;;;;;1.77;1.10;;;;;;;28.18;43.14;102250.81;5018394;28;20057;-78
2022/08/11 14:01:38;;;;;;;2.15;1.17;;;;;;;28.22;42.67;102251.41;5025477;28;20085;-78
2022/08/11 14:04:38;;;;;;;0.98;0.88;;;;;;;28.34;41.23;102246.56;5040436;28;20087;-78
2022/08/11 14:07:06;;;;;;;1.17;0.88;;;;;;;28.40;42.21;102245.09;5022007;28;20068;-78
2022/08/11 14:09:42;;;;;;;1.98;1.08;;;;;;;28.41;44.11;102246.81;5022301;28;20040;-77
2022/08/11 14:15:08;;;;;;;1.10;1.10;;;;;;;28.23;44.88;102234.03;5021059;28;20070;-78
2022/08/11 14:17:33;;;;;;;1.15;1.02;;;;;;;28.18;45.46;102236.34;5021129;28;20109;-77
2022/08/11 14:20:03;;;;;;;1.30;1.05;;;;;;;28.20;46.22;102235.19;5020638;28;20575;-78
2022/08/11 14:22:29;;;;;;;2.08;1.20;;;;;;;28.16;46.34;102238.38;5039437;28;20025;-78
2022/08/11 14:24:56;;;;;;;1.02;1.02;;;;;;;28.11;45.99;102233.34;5040778;28;20107;-79
2022/08/11 14:27:25;;;;;;;1.83;1.35;;;;;;;28.04;45.85;102233.13;5019577;28;20040;-77
2022/08/11 14:29:52;;;;;;;0.95;0.90;;;;;;;28.00;46.23;102236.31;5025525;28;20040;-78
2022/08/11 14:32:19;;;;;;;1.10;1.00;;;;;;;27.97;46.21;102233.88;5040528;28;20036;-77
2022/08/11 14:34:45;;;;;;;1.45;1.20;;;;;;;27.97;45.83;102231.16;5037256;28;20040;-80
2022/08/11 14:37:15;;;;;;;1.80;0.90;;;;;;;27.89;46.09;102232.78;5041274;28;20484;-79
2022/08/11 14:39:44;;;;;;;3.13;1.20;;;;;;;27.87;46.08;102229.34;5016826;28;20029;-80
2022/08/11 14:47:49;;;;;;;1.08;0.95;;;;;;;27.81;46.16;102219.06;5026296;28;20048;-80
2022/08/11 14:50:17;;;;;;;1.30;1.20;;;;;;;27.78;46.28;102219.41;5023216;28;20392;-80
2022/08/11 14:52:48;;;;;;;1.73;1.00;;;;;;;27.76;46.86;102214.09;5014710;28;20603;-80
2022/08/11 14:58:09;;;;;;;1.20;1.00;;;;;;;27.74;46.83;102207.09;4999478;28;20044;-80
2022/08/11 15:00:36;;;;;;;1.30;1.08;;;;;;;27.70;46.85;102205.66;4987988;28;20631;-80
2022/08/11 15:03:08;;;;;;;1.40;1.05;;;;;;;27.65;46.89;102206.13;5023321;28;20043;-80
2022/08/11 15:05:35;;;;;;;1.92;1.10;;;;;;;27.60;47.06;102211.16;5022566;28;20043;-81
2022/08/11 15:08:01;;;;;;;1.50;1.05;;;;;;;27.58;47.53;102207.72;5020341;28;20970;-81
2022/08/11 15:10:27;;;;;;;1.80;1.20;;;;;;;27.57;47.69;102204.19;5021814;28;20045;-80
2022/08/11 15:12:53;;;;;;;2.08;1.40;;;;;;;27.54;47.71;102211.75;5016767;28;20687;-81
2022/08/11 15:18:15;;;;;;;1.15;1.05;;;;;;;27.37;47.88;102200.63;5018271;28;21526;-82
2022/08/11 15:37:55;;;;;;;1.85;1.10;;;;;;;27.07;49.95;102194.44;4989907;28;20034;-93
2022/08/11 15:46:34;;;;;;;1.45;1.35;;;;;;;26.89;50.40;102178.84;5009816;28;20037;-87
2022/08/11 15:49:07;;;;;;;1.33;1.10;;;;;;;26.87;50.43;102180.88;5024363;28;20093;-88
2022/08/11 15:51:59;;;;;;;1.20;1.10;;;;;;;26.80;50.93;102177.84;5025078;28;20046;-88
2022/08/11 15:54:27;;;;;;;2.80;1.10;;;;;;;26.75;51.03;102179.31;5017545;28;20045;-89
2022/08/11 15:56:54;;;;;;;1.30;1.20;;;;;;;26.72;51.47;102180.44;5006766;28;20037;-87
2022/08/11 16:04:55;;;;;;;1.30;1.20;;;;;;;26.57;51.46;102172.75;4981127;28;20055;-89
2022/08/11 16:07:26;;;;;;;1.20;1.10;;;;;;;26.53;51.87;102175.91;5007645;28;20071;-87
2022/08/11 16:09:59;;;;;;;1.50;1.30;;;;;;;26.50;52.14;102171.59;5036198;28;20044;-86
2022/08/11 16:12:30;;;;;;;0.90;0.90;;;;;;;26.48;52.06;102167.31;5044728;28;20034;-86
2022/08/11 16:17:53;;;;;;;1.23;1.10;;;;;;;26.41;52.34;102176.03;5038994;28;21418;-89
2022/08/11 16:20:22;;;;;;;1.00;0.90;;;;;;;26.34;52.03;102176.72;5002161;28;20040;-87
2022/08/11 16:22:50;;;;;;;1.20;1.10;;;;;;;26.29;52.25;102161.75;5021763;28;21382;-87